createdAt,value
2022-07-26T00:03:04.698Z,56.2
2022-07-26T00:17:30.896Z,57.8
2022-07-26T00:31:57.920Z,59.1
2022-07-26T00:46:25.282Z,59.6
2022-07-26T01:00:52.929Z,60.6
2022-07-26T01:15:19.716Z,61.2
2022-07-26T01:29:47.578Z,62
2022-07-26T01:44:14.286Z,62
2022-07-26T01:58:42.020Z,63.6
2022-07-26T02:13:09.519Z,64
2022-07-26T02:27:36.826Z,66
2022-07-26T02:42:04.635Z,66.5
2022-07-26T02:56:32.814Z,66.6
2022-07-26T03:10:59.873Z,66.3
2022-07-26T03:25:27.239Z,66
2022-07-26T03:39:54.446Z,68.3
2022-07-26T03:54:22.546Z,69.5
2022-07-26T04:08:50.193Z,69.3
2022-07-26T04:23:18.030Z,71.1
2022-07-26T04:37:45.477Z,71.9
2022-07-26T04:52:10.714Z,71.5
2022-07-26T05:06:38.875Z,71
2022-07-26T05:21:06.566Z,73
2022-07-26T05:35:34.532Z,75.1
2022-07-26T05:50:03.189Z,75.7
2022-07-26T06:04:30.162Z,75.6
2022-07-26T06:18:58.303Z,76.1
2022-07-26T06:33:27.012Z,77.3
2022-07-26T06:47:56.319Z,75.2
2022-07-26T07:02:23.094Z,77.6
2022-07-26T07:16:50.909Z,77.7
2022-07-26T07:31:17.069Z,76.6
2022-07-26T07:45:49.020Z,76.9
2022-07-26T08:00:15.982Z,78
2022-07-26T08:14:42.418Z,78.6
2022-07-26T08:29:11.968Z,76.8
2022-07-26T08:43:53.746Z,76.6
2022-07-26T08:58:15.378Z,73.3
2022-07-26T09:12:40.573Z,74.8
2022-07-26T09:27:13.580Z,83.2
2022-07-26T09:41:43.458Z,80.8
2022-07-26T09:56:09.581Z,77.8
2022-07-26T10:10:36.021Z,73.9
2022-07-26T10:25:06.228Z,71.8
2022-07-26T10:39:35.374Z,61.1
2022-07-26T10:54:03.653Z,60
2022-07-26T11:08:31.844Z,56.5
2022-07-26T11:23:00.257Z,58.8
2022-07-26T11:37:28.050Z,58.7
2022-07-26T11:51:55.055Z,58.5
2022-07-26T12:06:23.137Z,61.1
2022-07-26T12:20:59.345Z,58.4
2022-07-26T12:35:24.415Z,56.2
2022-07-26T12:49:52.208Z,56.1
2022-07-26T13:04:21.716Z,61.2
2022-07-26T13:18:47.939Z,62.7
2022-07-26T13:33:16.364Z,62.4
2022-07-26T13:47:44.126Z,61.5
2022-07-26T14:02:11.511Z,61.2
2022-07-26T14:16:41.405Z,59.1
2022-07-26T14:31:12.624Z,56.1
2022-07-26T14:45:39.913Z,53.6
2022-07-26T15:00:15.466Z,53.3
2022-07-26T15:14:43.406Z,56.4
2022-07-26T15:29:12.506Z,56.4
2022-07-26T15:43:49.288Z,55.1
2022-07-26T15:58:13.210Z,56.3
2022-07-26T16:12:42.259Z,56.1
2022-07-26T16:27:11.376Z,57
2022-07-26T16:41:33.717Z,60.9
2022-07-26T16:56:00.942Z,61.1
2022-07-26T17:10:27.951Z,64.4
2022-07-26T17:24:55.214Z,65.5
2022-07-26T17:39:52.873Z,65.3
2022-07-26T17:54:08.590Z,65.6
2022-07-26T18:08:37.601Z,66.3
2022-07-26T18:23:02.793Z,67.8
2022-07-26T18:37:30.571Z,66.2
2022-07-26T18:52:06.121Z,66.2
2022-07-26T19:06:29.132Z,66.6
2022-07-26T19:20:57.336Z,67.4
2022-07-26T19:35:25.730Z,67.7
2022-07-26T19:49:53.011Z,68
2022-07-26T20:04:22.553Z,67.9
2022-07-26T20:18:49.326Z,68.2
2022-07-26T20:33:16.523Z,68.9
2022-07-26T20:47:42.657Z,70.3
2022-07-26T21:02:16.832Z,70
2022-07-26T21:16:45.957Z,71.5
2022-07-26T21:31:09.887Z,73.2
2022-07-26T21:45:37.355Z,72.5
2022-07-26T22:00:04.473Z,73.5
2022-07-26T22:14:32.510Z,73.8
2022-07-26T22:29:06.756Z,74.9
2022-07-26T22:43:36.979Z,75.5
2022-07-26T22:58:01.302Z,72.6
2022-07-26T23:12:30.307Z,69.4
2022-07-26T23:26:56.914Z,69.2
2022-07-26T23:41:24.341Z,69.4
2022-07-26T23:55:49.977Z,67.5
